Crested Butte, Colorado
Current Conditions -  °F | °C
As of 4:35 PM on Monday 22 Dec 2014 (Local Time) from KGUC Reporting Station
Clear Clear  
Wind Chill: 15°   Ceiling: Unl
Heat Index: 27°   Visibility: 10mi
Dew Point: 16°   Wind: 14mph
Humidity: 64%   Direction: 310°NW
Pressure: 29.76"   Gusts: 20mph
Location:  38.87°N, 106.98°W
Report Text: KGUC 222335Z AUTO 31012G17KT 10SM CLR M03/M09 A2976 RMK AO1
Loading
Personal Weather Stations






























Interactive Weather Map New forecast layout! Learn more

10-Day Weather Forecast

Advertisements
Track Severe Weather on mobile